X  Chiuso Dati meteorologici dell'aviazione (METAR)     LIMC Malpensa International Airport
Temperatura
24°C Temperatura
13°C Punto di rugiada
50% Umidità



Vento
8 KM/O
5 MPH
2 M/S
4 KTS



Calmo
Nord
Condizioni attuali

Nuvole per lo più sparse Nuvole per lo più sparse
Pressione 1010.84 (hPa) - 29.85 (inHg)
Visibilità 6 (miglio) - 9.7 (km)
Aeroporto
Codice-Aeroporto LIMC

Posizione: Malpensa International Airport
Distanza: 50 (km)

Metar:
LIMC 161420Z VRB04KT 9999 SCT040 24/13 Q1011 NOSIG

Ore: 16-06-2024 14:20 CEST